createdAt,value
2019-04-25T00:02:46.538Z,99244.64
2019-04-25T00:07:51.211Z,99234.53
2019-04-25T00:12:54.713Z,99231.59
2019-04-25T00:17:58.347Z,99231.96
2019-04-25T00:23:11.760Z,99237.56
2019-04-25T00:28:15.129Z,99245.31
2019-04-25T00:33:18.579Z,99258.00
2019-04-25T00:38:22.280Z,99256.53
2019-04-25T00:43:25.559Z,99243.20
2019-04-25T00:48:28.682Z,99239.35
2019-04-25T00:53:32.472Z,99244.59
2019-04-25T00:58:48.915Z,99249.75
2019-04-25T01:03:53.630Z,99248.56
2019-04-25T01:08:57.726Z,99252.23
2019-04-25T01:14:02.132Z,99249.01
2019-04-25T01:19:05.503Z,99241.38
2019-04-25T01:24:09.786Z,99250.80
2019-04-25T01:29:13.617Z,99249.81
2019-04-25T01:34:19.696Z,99252.13
2019-04-25T01:39:44.716Z,99243.23
2019-04-25T01:44:49.553Z,99240.11
2019-04-25T01:49:54.568Z,99239.97
2019-04-25T01:54:58.895Z,99247.16
2019-04-25T02:00:03.964Z,99242.90
2019-04-25T02:05:09.407Z,99230.87
2019-04-25T02:10:13.531Z,99228.58
2019-04-25T02:15:18.859Z,99242.41
2019-04-25T02:20:23.828Z,99243.30
2019-04-25T02:25:27.207Z,99238.75
2019-04-25T02:30:30.343Z,99242.27
2019-04-25T02:35:34.941Z,99236.08
2019-04-25T02:40:38.332Z,99238.37
2019-04-25T02:46:10.383Z,99236.94
2019-04-25T02:51:34.989Z,99230.65
2019-04-25T02:56:39.162Z,99232.19
2019-04-25T03:01:44.490Z,99240.50
2019-04-25T03:06:47.667Z,99232.71
2019-04-25T03:11:50.959Z,99221.47
2019-04-25T03:16:54.424Z,99232.46
2019-04-25T03:22:00.274Z,99235.81
2019-04-25T03:27:05.193Z,99234.53
2019-04-25T03:32:13.812Z,99231.84
2019-04-25T03:37:14.661Z,99244.17
2019-04-25T03:42:17.793Z,99243.59
2019-04-25T03:47:20.902Z,99233.79
2019-04-25T03:52:24.149Z,99219.98
2019-04-25T03:57:27.423Z,99223.83
2019-04-25T04:02:30.503Z,99233.02
2019-04-25T04:07:33.885Z,99239.56
2019-04-25T04:12:37.054Z,99229.77
2019-04-25T04:17:48.010Z,99233.08
2019-04-25T04:23:03.120Z,99224.61
2019-04-25T04:28:06.342Z,99219.89
2019-04-25T04:33:21.486Z,99230.52
2019-04-25T04:38:15.510Z,99246.55
2019-04-25T04:43:19.787Z,99254.47
2019-04-25T04:48:23.267Z,99249.78
2019-04-25T04:53:26.886Z,99260.09
2019-04-25T04:58:30.159Z,99253.66
2019-04-25T05:03:51.780Z,99250.50
2019-04-25T05:09:08.585Z,99243.09
2019-04-25T05:14:11.868Z,99233.78
2019-04-25T05:19:15.845Z,99235.27
2019-04-25T05:24:20.818Z,99219.60
2019-04-25T05:29:26.496Z,99219.41
2019-04-25T05:34:28.950Z,99217.83
2019-04-25T05:39:33.471Z,99211.17
2019-04-25T05:44:37.079Z,99227.20
2019-04-25T05:49:40.214Z,99220.48
2019-04-25T05:54:44.380Z,99223.84
2019-04-25T05:59:47.596Z,99225.92
2019-04-25T06:04:50.659Z,99233.41
2019-04-25T06:10:16.080Z,99225.33
2019-04-25T06:15:22.307Z,99228.90
2019-04-25T06:20:30.573Z,99228.22
2019-04-25T06:25:38.982Z,99230.16
2019-04-25T06:30:39.044Z,99219.38
2019-04-25T06:35:42.169Z,99221.27
2019-04-25T06:40:46.003Z,99222.85
2019-04-25T06:46:07.554Z,99211.86
2019-04-25T06:51:11.042Z,99213.92
2019-04-25T06:56:14.179Z,99213.56
2019-04-25T07:01:17.241Z,99219.13
2019-04-25T07:06:20.331Z,99220.35
2019-04-25T07:11:25.046Z,99219.88
2019-04-25T07:16:29.397Z,99230.78
2019-04-25T07:21:34.336Z,99230.27
2019-04-25T07:27:06.456Z,99230.52
2019-04-25T07:32:44.042Z,99238.84
2019-04-25T07:37:47.723Z,99234.30
2019-04-25T07:42:50.862Z,99234.02
2019-04-25T07:47:54.274Z,99226.53
2019-04-25T07:52:57.848Z,99219.70
2019-04-25T07:58:01.045Z,99215.42
2019-04-25T08:03:05.344Z,99229.09
2019-04-25T08:08:08.401Z,99227.19
2019-04-25T08:13:13.295Z,99231.58
2019-04-25T08:18:17.580Z,99231.19
2019-04-25T08:23:23.815Z,99224.84
2019-04-25T08:28:27.084Z,99228.09
2019-04-25T08:33:30.258Z,99219.93
2019-04-25T08:38:34.706Z,99222.59
2019-04-25T08:43:39.404Z,99226.33
2019-04-25T08:49:02.426Z,99223.36
2019-04-25T08:54:32.506Z,99216.91
2019-04-25T08:59:46.051Z,99208.63
2019-04-25T09:05:04.859Z,99214.44
2019-04-25T09:10:08.460Z,99214.59
2019-04-25T09:15:14.078Z,99218.89
2019-04-25T09:20:18.700Z,99223.66
2019-04-25T09:25:23.597Z,99222.14
2019-04-25T09:30:26.856Z,99215.72
2019-04-25T09:35:30.017Z,99213.28
2019-04-25T09:40:34.198Z,99204.74
2019-04-25T09:50:54.274Z,99207.63
2019-04-25T09:56:05.519Z,99198.61
2019-04-25T10:01:11.927Z,99193.73
2019-04-25T10:06:18.496Z,99199.56
2019-04-25T10:11:21.746Z,99188.98
2019-04-25T10:16:25.045Z,99191.93
2019-04-25T10:21:28.543Z,99187.82
2019-04-25T10:26:33.530Z,99184.96
2019-04-25T10:31:37.092Z,99173.89
2019-04-25T10:36:42.120Z,99179.48
2019-04-25T10:41:46.747Z,99186.31
2019-04-25T10:46:50.437Z,99173.09
2019-04-25T10:51:53.716Z,99167.10
2019-04-25T10:56:57.230Z,99164.86
2019-04-25T11:02:00.409Z,99173.08
2019-04-25T11:07:03.870Z,99163.35
2019-04-25T11:12:10.884Z,99152.59
2019-04-25T11:17:15.485Z,99152.92
2019-04-25T11:22:18.835Z,99149.31
2019-04-25T11:27:23.984Z,99144.61
2019-04-25T11:32:28.107Z,99150.27
2019-04-25T11:37:31.991Z,99143.49
2019-04-25T11:42:35.173Z,99148.42
2019-04-25T11:47:38.532Z,99147.52
2019-04-25T11:52:41.774Z,99138.33
2019-04-25T11:57:48.737Z,99135.62
2019-04-25T12:02:50.495Z,99136.78
2019-04-25T12:07:53.568Z,99134.92
2019-04-25T12:12:57.816Z,99130.02
2019-04-25T12:18:01.122Z,99133.25
2019-04-25T12:23:10.253Z,99133.29
2019-04-25T12:28:09.555Z,99134.05
2019-04-25T12:33:20.329Z,99132.28
2019-04-25T12:38:20.305Z,99123.09
2019-04-25T12:43:24.605Z,99120.19
2019-04-25T12:48:27.830Z,99113.19
2019-04-25T12:53:30.988Z,99117.95
2019-04-25T12:58:34.077Z,99111.89
2019-04-25T13:03:37.247Z,99111.08
2019-04-25T13:08:40.476Z,99102.37
2019-04-25T13:13:43.706Z,99094.86
2019-04-25T13:18:46.892Z,99097.81
2019-04-25T13:23:50.151Z,99099.84
2019-04-25T13:29:23.173Z,99097.70
2019-04-25T13:34:36.490Z,99097.06
2019-04-25T13:39:36.995Z,99092.16
2019-04-25T13:44:40.275Z,99094.41
2019-04-25T13:49:43.558Z,99089.48
2019-04-25T13:54:47.067Z,99094.46
2019-04-25T13:59:50.397Z,99091.52
2019-04-25T14:04:53.719Z,99088.76
2019-04-25T14:09:56.906Z,99089.78
2019-04-25T14:15:00.276Z,99089.30
2019-04-25T14:20:19.075Z,99085.18
2019-04-25T14:25:23.010Z,99099.66
2019-04-25T14:30:29.943Z,99096.72
2019-04-25T14:35:33.408Z,99087.28
2019-04-25T14:40:36.458Z,99079.30
2019-04-25T14:45:44.295Z,99081.30
2019-04-25T14:50:44.981Z,99078.42
2019-04-25T14:56:10.446Z,99087.17
2019-04-25T15:01:15.971Z,99075.13
2019-04-25T15:06:19.294Z,99082.09
2019-04-25T15:11:23.222Z,99072.06
2019-04-25T15:16:27.054Z,99071.18
2019-04-25T15:21:30.384Z,99066.02
2019-04-25T15:26:33.508Z,99066.92
2019-04-25T15:31:36.843Z,99066.47
2019-04-25T15:37:00.567Z,99059.91
2019-04-25T15:42:32.182Z,99057.83
2019-04-25T15:47:36.196Z,99056.31
2019-04-25T15:52:39.453Z,99050.92
2019-04-25T15:57:42.597Z,99044.73
2019-04-25T16:02:45.737Z,99052.64
2019-04-25T16:07:49.024Z,99044.33
2019-04-25T16:12:52.083Z,99047.33
2019-04-25T16:17:56.217Z,99045.67
2019-04-25T16:23:00.044Z,99045.28
2019-04-25T16:28:03.262Z,99046.70
2019-04-25T16:33:07.629Z,99049.53
2019-04-25T16:38:11.888Z,99048.20
2019-04-25T16:43:19.421Z,99055.89
2019-04-25T16:48:23.013Z,99053.48
2019-04-25T16:53:26.173Z,99059.96
2019-04-25T16:58:29.767Z,99062.67
2019-04-25T17:03:35.379Z,99065.29
2019-04-25T17:08:38.451Z,99073.05
2019-04-25T17:13:51.188Z,99073.06
2019-04-25T17:18:58.764Z,99084.65
2019-04-25T17:24:02.415Z,99081.48
2019-04-25T17:29:09.820Z,99084.58
2019-04-25T17:34:36.591Z,99096.31
2019-04-25T17:39:42.130Z,99101.23
2019-04-25T17:44:45.563Z,99103.06
2019-04-25T17:49:48.986Z,99100.67
2019-04-25T17:54:52.045Z,99107.31
2019-04-25T17:59:55.370Z,99111.98
2019-04-25T18:04:58.483Z,99121.28
2019-04-25T18:10:01.701Z,99124.41
2019-04-25T18:15:07.508Z,99129.08
2019-04-25T18:20:17.699Z,99135.11
2019-04-25T18:25:43.295Z,99135.50
2019-04-25T18:30:47.702Z,99147.58
2019-04-25T18:35:52.478Z,99151.67
2019-04-25T18:41:07.268Z,99159.26
2019-04-25T18:46:17.461Z,99156.89
2019-04-25T18:51:20.681Z,99156.33
2019-04-25T18:56:46.150Z,99165.44
2019-04-25T19:02:07.753Z,99169.09
2019-04-25T19:07:22.064Z,99177.51
2019-04-25T19:12:16.135Z,99173.72
2019-04-25T19:17:19.595Z,99181.73
2019-04-25T19:22:23.277Z,99184.75
2019-04-25T19:27:26.673Z,99182.34
2019-04-25T19:32:29.869Z,99186.96
2019-04-25T19:37:33.377Z,99193.36
2019-04-25T19:42:41.124Z,99187.13
2019-04-25T19:47:45.057Z,99194.72
2019-04-25T19:52:48.318Z,99199.80
2019-04-25T19:57:52.511Z,99194.77
2019-04-25T20:03:05.603Z,99196.19
2019-04-25T20:08:30.717Z,99189.71
2019-04-25T20:13:33.903Z,99198.56
2019-04-25T20:18:37.022Z,99194.00
2019-04-25T20:23:40.113Z,99188.95
2019-04-25T20:28:44.805Z,99203.39
2019-04-25T20:34:00.245Z,99210.36
2019-04-25T20:38:53.366Z,99206.88
2019-04-25T20:43:57.057Z,99202.88
2019-04-25T20:49:00.370Z,99200.46
2019-04-25T20:54:03.541Z,99204.95
2019-04-25T20:59:06.776Z,99203.06
2019-04-25T21:04:29.656Z,99209.04
2019-04-25T21:09:33.216Z,99213.58
2019-04-25T21:15:11.020Z,99216.60
2019-04-25T21:20:14.315Z,99216.47
2019-04-25T21:25:17.381Z,99221.22
2019-04-25T21:30:20.649Z,99223.18
2019-04-25T21:35:24.226Z,99217.31
2019-04-25T21:40:37.320Z,99216.16
2019-04-25T21:45:41.050Z,99216.18
2019-04-25T21:50:44.708Z,99208.75
2019-04-25T21:55:47.899Z,99213.70
2019-04-25T22:01:16.955Z,99210.48
2019-04-25T22:06:20.402Z,99209.89
2019-04-25T22:11:23.615Z,99205.58
2019-04-25T22:16:27.517Z,99205.33
2019-04-25T22:21:37.800Z,99205.30
2019-04-25T22:26:36.229Z,99205.17
2019-04-25T22:31:47.728Z,99212.73
2019-04-25T22:36:51.117Z,99213.36
2019-04-25T22:41:54.352Z,99209.03
2019-04-25T22:46:58.015Z,99198.88
2019-04-25T22:52:01.744Z,99209.26
2019-04-25T22:57:06.387Z,99211.96
2019-04-25T23:02:25.012Z,99207.84
2019-04-25T23:07:29.286Z,99205.89
2019-04-25T23:12:33.001Z,99198.72
2019-04-25T23:17:36.215Z,99206.15
2019-04-25T23:22:39.778Z,99198.09
2019-04-25T23:28:03.637Z,99193.44
2019-04-25T23:33:08.505Z,99195.57
2019-04-25T23:38:13.763Z,99195.69
2019-04-25T23:43:17.042Z,99186.83
2019-04-25T23:48:20.713Z,99183.95
2019-04-25T23:53:24.268Z,99178.23
2019-04-25T23:58:27.459Z,99174.62
